sensor_id;sensor_type;location;lat;lon;timestamp;P1;durP1;ratioP1;P2;durP2;ratioP2
23410;SDS011;11878;51.774;7.220;2023-05-07T00:01:11;9.97;;;6.80;;
23410;SDS011;11878;51.774;7.220;2023-05-07T00:04:13;9.93;;;7.07;;
23410;SDS011;11878;51.774;7.220;2023-05-07T00:07:15;9.10;;;7.33;;
23410;SDS011;11878;51.774;7.220;2023-05-07T00:10:18;9.47;;;8.00;;
23410;SDS011;11878;51.774;7.220;2023-05-07T00:13:20;10.43;;;7.57;;
23410;SDS011;11878;51.774;7.220;2023-05-07T00:16:21;9.80;;;7.57;;
23410;SDS011;11878;51.774;7.220;2023-05-07T00:19:23;9.53;;;7.30;;
23410;SDS011;11878;51.774;7.220;2023-05-07T00:22:25;9.53;;;7.27;;
23410;SDS011;11878;51.774;7.220;2023-05-07T00:25:27;8.07;;;6.47;;
23410;SDS011;11878;51.774;7.220;2023-05-07T00:28:29;10.27;;;7.77;;
23410;SDS011;11878;51.774;7.220;2023-05-07T00:31:30;9.80;;;7.23;;
23410;SDS011;11878;51.774;7.220;2023-05-07T00:34:32;11.07;;;8.33;;
23410;SDS011;11878;51.774;7.220;2023-05-07T00:37:34;11.53;;;7.03;;
23410;SDS011;11878;51.774;7.220;2023-05-07T00:40:36;12.30;;;7.17;;
23410;SDS011;11878;51.774;7.220;2023-05-07T00:43:38;11.13;;;7.63;;
23410;SDS011;11878;51.774;7.220;2023-05-07T00:46:40;9.20;;;8.00;;
23410;SDS011;11878;51.774;7.220;2023-05-07T00:49:42;11.50;;;8.17;;
23410;SDS011;11878;51.774;7.220;2023-05-07T00:52:45;9.37;;;7.70;;
23410;SDS011;11878;51.774;7.220;2023-05-07T00:55:47;10.77;;;7.67;;
23410;SDS011;11878;51.774;7.220;2023-05-07T00:58:49;11.20;;;8.40;;
23410;SDS011;11878;51.774;7.220;2023-05-07T01:01:51;14.00;;;8.20;;
23410;SDS011;11878;51.774;7.220;2023-05-07T01:04:53;11.80;;;8.53;;
23410;SDS011;11878;51.774;7.220;2023-05-07T01:07:57;13.10;;;8.20;;
23410;SDS011;11878;51.774;7.220;2023-05-07T01:10:59;12.93;;;8.33;;
23410;SDS011;11878;51.774;7.220;2023-05-07T01:14:01;11.33;;;8.83;;
23410;SDS011;11878;51.774;7.220;2023-05-07T01:17:04;11.33;;;8.07;;
23410;SDS011;11878;51.774;7.220;2023-05-07T01:20:06;10.67;;;8.37;;
23410;SDS011;11878;51.774;7.220;2023-05-07T01:23:09;14.03;;;8.67;;
23410;SDS011;11878;51.774;7.220;2023-05-07T01:26:12;10.23;;;8.43;;
23410;SDS011;11878;51.774;7.220;2023-05-07T01:29:15;12.43;;;8.77;;
23410;SDS011;11878;51.774;7.220;2023-05-07T01:32:21;11.33;;;8.37;;
23410;SDS011;11878;51.774;7.220;2023-05-07T01:35:43;12.10;;;8.93;;
23410;SDS011;11878;51.774;7.220;2023-05-07T01:38:47;12.97;;;9.07;;
23410;SDS011;11878;51.774;7.220;2023-05-07T01:41:49;11.87;;;8.60;;
23410;SDS011;11878;51.774;7.220;2023-05-07T01:44:52;12.73;;;9.40;;
23410;SDS011;11878;51.774;7.220;2023-05-07T01:47:53;13.37;;;9.50;;
23410;SDS011;11878;51.774;7.220;2023-05-07T01:50:56;11.07;;;8.60;;
23410;SDS011;11878;51.774;7.220;2023-05-07T01:53:58;11.73;;;8.40;;
23410;SDS011;11878;51.774;7.220;2023-05-07T01:57:01;12.53;;;9.20;;
23410;SDS011;11878;51.774;7.220;2023-05-07T02:00:03;12.00;;;8.83;;
23410;SDS011;11878;51.774;7.220;2023-05-07T02:03:15;15.10;;;9.27;;
23410;SDS011;11878;51.774;7.220;2023-05-07T02:06:26;12.83;;;9.63;;
23410;SDS011;11878;51.774;7.220;2023-05-07T02:09:33;15.13;;;9.37;;
23410;SDS011;11878;51.774;7.220;2023-05-07T02:12:35;13.37;;;9.00;;
23410;SDS011;11878;51.774;7.220;2023-05-07T02:15:37;10.83;;;8.40;;
23410;SDS011;11878;51.774;7.220;2023-05-07T02:18:39;11.60;;;8.50;;
23410;SDS011;11878;51.774;7.220;2023-05-07T02:21:41;10.83;;;8.30;;
23410;SDS011;11878;51.774;7.220;2023-05-07T02:24:43;12.80;;;8.73;;
23410;SDS011;11878;51.774;7.220;2023-05-07T02:27:45;10.80;;;8.57;;
23410;SDS011;11878;51.774;7.220;2023-05-07T02:30:48;11.27;;;8.83;;
23410;SDS011;11878;51.774;7.220;2023-05-07T02:33:50;11.03;;;7.93;;
23410;SDS011;11878;51.774;7.220;2023-05-07T02:36:52;11.70;;;8.57;;
23410;SDS011;11878;51.774;7.220;2023-05-07T02:39:57;11.30;;;8.17;;
23410;SDS011;11878;51.774;7.220;2023-05-07T02:42:59;11.77;;;8.80;;
23410;SDS011;11878;51.774;7.220;2023-05-07T02:46:05;10.93;;;8.20;;
23410;SDS011;11878;51.774;7.220;2023-05-07T02:49:11;13.40;;;9.30;;
23410;SDS011;11878;51.774;7.220;2023-05-07T02:52:13;14.13;;;8.80;;
23410;SDS011;11878;51.774;7.220;2023-05-07T02:55:15;11.17;;;8.63;;
23410;SDS011;11878;51.774;7.220;2023-05-07T02:58:17;15.17;;;9.07;;
23410;SDS011;11878;51.774;7.220;2023-05-07T03:01:19;12.13;;;7.67;;
23410;SDS011;11878;51.774;7.220;2023-05-07T03:04:31;12.90;;;7.23;;
23410;SDS011;11878;51.774;7.220;2023-05-07T03:07:34;11.10;;;7.77;;
23410;SDS011;11878;51.774;7.220;2023-05-07T03:10:37;11.53;;;7.17;;
23410;SDS011;11878;51.774;7.220;2023-05-07T03:13:39;9.53;;;7.40;;
23410;SDS011;11878;51.774;7.220;2023-05-07T03:16:41;13.53;;;8.13;;
23410;SDS011;11878;51.774;7.220;2023-05-07T03:19:43;9.83;;;7.43;;
23410;SDS011;11878;51.774;7.220;2023-05-07T03:22:44;12.80;;;7.20;;
23410;SDS011;11878;51.774;7.220;2023-05-07T03:25:46;11.37;;;7.50;;
23410;SDS011;11878;51.774;7.220;2023-05-07T03:28:48;11.67;;;7.40;;
23410;SDS011;11878;51.774;7.220;2023-05-07T03:31:51;10.70;;;6.83;;
23410;SDS011;11878;51.774;7.220;2023-05-07T03:34:53;12.53;;;7.67;;
23410;SDS011;11878;51.774;7.220;2023-05-07T03:37:55;13.03;;;7.50;;
23410;SDS011;11878;51.774;7.220;2023-05-07T03:40:57;12.60;;;7.97;;
23410;SDS011;11878;51.774;7.220;2023-05-07T03:44:00;8.67;;;7.13;;
23410;SDS011;11878;51.774;7.220;2023-05-07T03:47:02;10.40;;;7.13;;
23410;SDS011;11878;51.774;7.220;2023-05-07T03:50:05;12.63;;;7.77;;
23410;SDS011;11878;51.774;7.220;2023-05-07T03:53:07;12.10;;;7.83;;
23410;SDS011;11878;51.774;7.220;2023-05-07T03:56:12;15.17;;;7.67;;
23410;SDS011;11878;51.774;7.220;2023-05-07T03:59:15;11.97;;;7.90;;
23410;SDS011;11878;51.774;7.220;2023-05-07T04:02:19;11.30;;;7.50;;
23410;SDS011;11878;51.774;7.220;2023-05-07T04:05:21;10.37;;;7.80;;
23410;SDS011;11878;51.774;7.220;2023-05-07T04:08:25;11.87;;;7.77;;
23410;SDS011;11878;51.774;7.220;2023-05-07T04:11:28;12.53;;;7.80;;
23410;SDS011;11878;51.774;7.220;2023-05-07T04:14:30;15.10;;;8.03;;
23410;SDS011;11878;51.774;7.220;2023-05-07T04:17:34;10.00;;;7.70;;
23410;SDS011;11878;51.774;7.220;2023-05-07T04:20:36;12.07;;;7.07;;
23410;SDS011;11878;51.774;7.220;2023-05-07T04:23:41;15.40;;;7.47;;
23410;SDS011;11878;51.774;7.220;2023-05-07T04:26:45;13.37;;;9.00;;
23410;SDS011;11878;51.774;7.220;2023-05-07T04:29:48;13.50;;;7.80;;
23410;SDS011;11878;51.774;7.220;2023-05-07T04:32:52;13.50;;;7.93;;
23410;SDS011;11878;51.774;7.220;2023-05-07T04:35:55;12.00;;;8.20;;
23410;SDS011;11878;51.774;7.220;2023-05-07T04:38:57;12.53;;;8.27;;
23410;SDS011;11878;51.774;7.220;2023-05-07T04:41:59;15.07;;;8.60;;
23410;SDS011;11878;51.774;7.220;2023-05-07T04:45:02;13.53;;;7.80;;
23410;SDS011;11878;51.774;7.220;2023-05-07T04:48:07;12.63;;;8.53;;
23410;SDS011;11878;51.774;7.220;2023-05-07T04:51:13;13.03;;;8.57;;
23410;SDS011;11878;51.774;7.220;2023-05-07T04:54:15;13.37;;;8.20;;
23410;SDS011;11878;51.774;7.220;2023-05-07T04:57:16;14.47;;;8.43;;
23410;SDS011;11878;51.774;7.220;2023-05-07T05:00:18;13.87;;;8.27;;
23410;SDS011;11878;51.774;7.220;2023-05-07T05:03:22;14.93;;;8.13;;
23410;SDS011;11878;51.774;7.220;2023-05-07T05:06:25;15.20;;;9.07;;
23410;SDS011;11878;51.774;7.220;2023-05-07T05:09:26;12.17;;;9.23;;
23410;SDS011;11878;51.774;7.220;2023-05-07T05:12:29;15.17;;;9.03;;
23410;SDS011;11878;51.774;7.220;2023-05-07T05:15:33;14.00;;;9.43;;
23410;SDS011;11878;51.774;7.220;2023-05-07T05:18:36;14.50;;;10.03;;
23410;SDS011;11878;51.774;7.220;2023-05-07T05:21:38;15.80;;;9.73;;
23410;SDS011;11878;51.774;7.220;2023-05-07T05:24:42;17.67;;;11.27;;
23410;SDS011;11878;51.774;7.220;2023-05-07T05:27:44;18.00;;;10.67;;
23410;SDS011;11878;51.774;7.220;2023-05-07T05:30:47;17.53;;;10.03;;
23410;SDS011;11878;51.774;7.220;2023-05-07T05:33:49;14.73;;;10.83;;
23410;SDS011;11878;51.774;7.220;2023-05-07T05:36:50;18.33;;;10.53;;
23410;SDS011;11878;51.774;7.220;2023-05-07T05:39:52;15.63;;;11.20;;
23410;SDS011;11878;51.774;7.220;2023-05-07T05:42:56;16.23;;;10.97;;
23410;SDS011;11878;51.774;7.220;2023-05-07T05:45:58;17.57;;;10.13;;
23410;SDS011;11878;51.774;7.220;2023-05-07T05:49:01;15.53;;;11.03;;
23410;SDS011;11878;51.774;7.220;2023-05-07T05:52:02;18.63;;;10.33;;
23410;SDS011;11878;51.774;7.220;2023-05-07T05:55:05;19.03;;;12.10;;
23410;SDS011;11878;51.774;7.220;2023-05-07T05:58:09;20.43;;;12.10;;
23410;SDS011;11878;51.774;7.220;2023-05-07T06:01:15;16.57;;;12.13;;
23410;SDS011;11878;51.774;7.220;2023-05-07T06:04:20;18.17;;;11.20;;
23410;SDS011;11878;51.774;7.220;2023-05-07T06:07:22;17.13;;;11.97;;
23410;SDS011;11878;51.774;7.220;2023-05-07T06:10:24;19.63;;;12.43;;
23410;SDS011;11878;51.774;7.220;2023-05-07T06:13:28;18.60;;;12.70;;
23410;SDS011;11878;51.774;7.220;2023-05-07T06:16:30;23.73;;;12.33;;
23410;SDS011;11878;51.774;7.220;2023-05-07T06:19:32;16.27;;;12.37;;
23410;SDS011;11878;51.774;7.220;2023-05-07T06:22:34;20.67;;;12.53;;
23410;SDS011;11878;51.774;7.220;2023-05-07T06:25:37;19.57;;;12.73;;
23410;SDS011;11878;51.774;7.220;2023-05-07T06:28:39;18.23;;;12.97;;
23410;SDS011;11878;51.774;7.220;2023-05-07T06:31:44;20.70;;;13.73;;
23410;SDS011;11878;51.774;7.220;2023-05-07T06:34:46;26.13;;;15.10;;
23410;SDS011;11878;51.774;7.220;2023-05-07T06:37:49;21.40;;;13.07;;
23410;SDS011;11878;51.774;7.220;2023-05-07T06:40:56;22.90;;;13.27;;
23410;SDS011;11878;51.774;7.220;2023-05-07T06:43:58;18.27;;;13.07;;
23410;SDS011;11878;51.774;7.220;2023-05-07T06:47:06;22.73;;;13.37;;
23410;SDS011;11878;51.774;7.220;2023-05-07T06:50:09;17.90;;;13.60;;
23410;SDS011;11878;51.774;7.220;2023-05-07T06:53:12;22.50;;;13.53;;
23410;SDS011;11878;51.774;7.220;2023-05-07T06:56:14;23.60;;;13.47;;
23410;SDS011;11878;51.774;7.220;2023-05-07T06:59:15;19.93;;;14.13;;
23410;SDS011;11878;51.774;7.220;2023-05-07T07:02:17;19.93;;;13.90;;
23410;SDS011;11878;51.774;7.220;2023-05-07T07:05:20;17.77;;;13.27;;
23410;SDS011;11878;51.774;7.220;2023-05-07T07:08:23;18.47;;;13.57;;
23410;SDS011;11878;51.774;7.220;2023-05-07T07:11:25;21.87;;;12.47;;
23410;SDS011;11878;51.774;7.220;2023-05-07T07:14:28;22.03;;;13.60;;
23410;SDS011;11878;51.774;7.220;2023-05-07T07:17:31;24.03;;;13.40;;
23410;SDS011;11878;51.774;7.220;2023-05-07T07:20:33;21.93;;;14.07;;
23410;SDS011;11878;51.774;7.220;2023-05-07T07:23:35;18.10;;;13.83;;
23410;SDS011;11878;51.774;7.220;2023-05-07T07:26:37;21.87;;;14.63;;
23410;SDS011;11878;51.774;7.220;2023-05-07T07:29:41;21.00;;;14.77;;
23410;SDS011;11878;51.774;7.220;2023-05-07T07:32:43;19.80;;;13.73;;
23410;SDS011;11878;51.774;7.220;2023-05-07T07:35:44;21.97;;;13.80;;
23410;SDS011;11878;51.774;7.220;2023-05-07T07:38:46;21.20;;;14.53;;
23410;SDS011;11878;51.774;7.220;2023-05-07T07:41:50;20.87;;;13.87;;
23410;SDS011;11878;51.774;7.220;2023-05-07T07:44:53;23.10;;;14.73;;
23410;SDS011;11878;51.774;7.220;2023-05-07T07:47:57;23.77;;;14.80;;
23410;SDS011;11878;51.774;7.220;2023-05-07T07:51:00;20.10;;;13.80;;
23410;SDS011;11878;51.774;7.220;2023-05-07T07:54:02;27.00;;;14.83;;
23410;SDS011;11878;51.774;7.220;2023-05-07T07:57:06;22.03;;;14.23;;
23410;SDS011;11878;51.774;7.220;2023-05-07T08:00:09;23.43;;;14.37;;
23410;SDS011;11878;51.774;7.220;2023-05-07T08:03:16;21.17;;;14.07;;
23410;SDS011;11878;51.774;7.220;2023-05-07T08:06:24;22.50;;;13.90;;
23410;SDS011;11878;51.774;7.220;2023-05-07T08:09:27;23.37;;;14.43;;
23410;SDS011;11878;51.774;7.220;2023-05-07T08:12:32;22.03;;;14.07;;
23410;SDS011;11878;51.774;7.220;2023-05-07T08:15:34;22.33;;;14.00;;
23410;SDS011;11878;51.774;7.220;2023-05-07T08:18:37;19.40;;;13.47;;
23410;SDS011;11878;51.774;7.220;2023-05-07T08:21:40;22.30;;;14.23;;
23410;SDS011;11878;51.774;7.220;2023-05-07T08:24:43;19.00;;;13.73;;
23410;SDS011;11878;51.774;7.220;2023-05-07T08:27:46;22.70;;;13.57;;
23410;SDS011;11878;51.774;7.220;2023-05-07T08:30:49;19.87;;;13.07;;
23410;SDS011;11878;51.774;7.220;2023-05-07T08:33:52;21.27;;;13.33;;
23410;SDS011;11878;51.774;7.220;2023-05-07T08:36:53;18.93;;;13.10;;
23410;SDS011;11878;51.774;7.220;2023-05-07T08:39:57;20.30;;;12.97;;
23410;SDS011;11878;51.774;7.220;2023-05-07T08:43:07;19.43;;;12.57;;
23410;SDS011;11878;51.774;7.220;2023-05-07T08:46:14;20.43;;;13.83;;
23410;SDS011;11878;51.774;7.220;2023-05-07T08:49:21;21.13;;;13.53;;
23410;SDS011;11878;51.774;7.220;2023-05-07T08:52:24;18.70;;;13.00;;
23410;SDS011;11878;51.774;7.220;2023-05-07T08:55:26;18.33;;;12.23;;
23410;SDS011;11878;51.774;7.220;2023-05-07T08:58:30;18.43;;;12.33;;
23410;SDS011;11878;51.774;7.220;2023-05-07T09:01:33;20.50;;;11.87;;
23410;SDS011;11878;51.774;7.220;2023-05-07T09:04:37;19.67;;;12.07;;
23410;SDS011;11878;51.774;7.220;2023-05-07T09:07:39;20.57;;;12.63;;
23410;SDS011;11878;51.774;7.220;2023-05-07T09:10:42;17.50;;;11.53;;
23410;SDS011;11878;51.774;7.220;2023-05-07T09:13:44;19.13;;;12.90;;
23410;SDS011;11878;51.774;7.220;2023-05-07T09:16:46;18.47;;;12.37;;
23410;SDS011;11878;51.774;7.220;2023-05-07T09:19:48;17.30;;;11.07;;
23410;SDS011;11878;51.774;7.220;2023-05-07T09:22:51;17.77;;;11.30;;
23410;SDS011;11878;51.774;7.220;2023-05-07T09:25:53;19.47;;;11.80;;
23410;SDS011;11878;51.774;7.220;2023-05-07T09:29:07;21.13;;;12.30;;
23410;SDS011;11878;51.774;7.220;2023-05-07T09:32:11;18.70;;;12.20;;
23410;SDS011;11878;51.774;7.220;2023-05-07T09:35:15;16.33;;;11.03;;
23410;SDS011;11878;51.774;7.220;2023-05-07T09:38:27;22.50;;;13.53;;
23410;SDS011;11878;51.774;7.220;2023-05-07T09:41:32;18.00;;;11.83;;
23410;SDS011;11878;51.774;7.220;2023-05-07T09:44:43;23.07;;;13.20;;
23410;SDS011;11878;51.774;7.220;2023-05-07T09:47:54;19.77;;;13.50;;
23410;SDS011;11878;51.774;7.220;2023-05-07T09:50:58;21.37;;;13.93;;
23410;SDS011;11878;51.774;7.220;2023-05-07T09:54:06;22.67;;;14.17;;
23410;SDS011;11878;51.774;7.220;2023-05-07T09:57:12;23.47;;;13.23;;
23410;SDS011;11878;51.774;7.220;2023-05-07T10:00:20;20.13;;;13.13;;
23410;SDS011;11878;51.774;7.220;2023-05-07T10:03:23;22.53;;;13.67;;
23410;SDS011;11878;51.774;7.220;2023-05-07T10:06:34;20.30;;;12.50;;
23410;SDS011;11878;51.774;7.220;2023-05-07T10:09:36;17.33;;;11.57;;
23410;SDS011;11878;51.774;7.220;2023-05-07T10:12:47;22.70;;;13.43;;
23410;SDS011;11878;51.774;7.220;2023-05-07T10:15:56;20.50;;;13.53;;
23410;SDS011;11878;51.774;7.220;2023-05-07T10:19:02;18.92;;;13.32;;
23410;SDS011;11878;51.774;7.220;2023-05-07T10:22:06;18.98;;;12.40;;
23410;SDS011;11878;51.774;7.220;2023-05-07T10:25:18;19.52;;;12.40;;
23410;SDS011;11878;51.774;7.220;2023-05-07T10:28:30;23.23;;;11.77;;
23410;SDS011;11878;51.774;7.220;2023-05-07T10:31:43;17.95;;;12.13;;
23410;SDS011;11878;51.774;7.220;2023-05-07T10:35:03;20.27;;;12.30;;
23410;SDS011;11878;51.774;7.220;2023-05-07T10:38:10;17.70;;;12.18;;
23410;SDS011;11878;51.774;7.220;2023-05-07T10:41:15;16.75;;;10.90;;
23410;SDS011;11878;51.774;7.220;2023-05-07T10:44:28;16.70;;;10.98;;
23410;SDS011;11878;51.774;7.220;2023-05-07T10:47:36;14.80;;;9.60;;
23410;SDS011;11878;51.774;7.220;2023-05-07T10:51:30;17.50;;;10.85;;
23410;SDS011;11878;51.774;7.220;2023-05-07T10:58:47;15.50;;;10.88;;
23410;SDS011;11878;51.774;7.220;2023-05-07T11:01:58;19.50;;;10.07;;
23410;SDS011;11878;51.774;7.220;2023-05-07T11:05:22;13.07;;;9.02;;
23410;SDS011;11878;51.774;7.220;2023-05-07T11:11:54;13.07;;;8.85;;
23410;SDS011;11878;51.774;7.220;2023-05-07T11:16:02;11.77;;;8.57;;
23410;SDS011;11878;51.774;7.220;2023-05-07T11:19:03;10.10;;;6.90;;
23410;SDS011;11878;51.774;7.220;2023-05-07T11:25:41;14.50;;;8.80;;
23410;SDS011;11878;51.774;7.220;2023-05-07T11:28:52;12.40;;;8.75;;
23410;SDS011;11878;51.774;7.220;2023-05-07T11:31:56;17.23;;;8.88;;
23410;SDS011;11878;51.774;7.220;2023-05-07T11:35:02;11.23;;;6.88;;
23410;SDS011;11878;51.774;7.220;2023-05-07T11:38:04;13.43;;;8.88;;
23410;SDS011;11878;51.774;7.220;2023-05-07T11:41:08;14.90;;;8.20;;
23410;SDS011;11878;51.774;7.220;2023-05-07T11:44:10;12.60;;;8.02;;
23410;SDS011;11878;51.774;7.220;2023-05-07T11:47:16;14.13;;;6.63;;
23410;SDS011;11878;51.774;7.220;2023-05-07T11:50:19;13.93;;;7.82;;
23410;SDS011;11878;51.774;7.220;2023-05-07T11:53:24;11.82;;;7.30;;
23410;SDS011;11878;51.774;7.220;2023-05-07T11:56:26;12.77;;;8.85;;
23410;SDS011;11878;51.774;7.220;2023-05-07T11:59:28;12.02;;;8.05;;
23410;SDS011;11878;51.774;7.220;2023-05-07T12:02:29;12.88;;;7.85;;
23410;SDS011;11878;51.774;7.220;2023-05-07T12:05:32;11.32;;;7.70;;
23410;SDS011;11878;51.774;7.220;2023-05-07T12:08:38;13.35;;;8.35;;
23410;SDS011;11878;51.774;7.220;2023-05-07T12:11:41;13.68;;;8.00;;
23410;SDS011;11878;51.774;7.220;2023-05-07T12:14:47;12.35;;;7.97;;
23410;SDS011;11878;51.774;7.220;2023-05-07T12:17:49;13.75;;;8.15;;
23410;SDS011;11878;51.774;7.220;2023-05-07T12:20:51;12.27;;;7.45;;
23410;SDS011;11878;51.774;7.220;2023-05-07T12:23:53;13.10;;;7.95;;
23410;SDS011;11878;51.774;7.220;2023-05-07T12:26:55;12.48;;;7.50;;
23410;SDS011;11878;51.774;7.220;2023-05-07T12:29:57;11.38;;;7.40;;
23410;SDS011;11878;51.774;7.220;2023-05-07T12:33:00;12.73;;;7.70;;
23410;SDS011;11878;51.774;7.220;2023-05-07T12:36:03;11.27;;;7.10;;
23410;SDS011;11878;51.774;7.220;2023-05-07T12:39:08;9.32;;;6.20;;
23410;SDS011;11878;51.774;7.220;2023-05-07T12:42:14;9.50;;;6.22;;
23410;SDS011;11878;51.774;7.220;2023-05-07T12:45:16;9.73;;;5.88;;
23410;SDS011;11878;51.774;7.220;2023-05-07T12:48:19;11.48;;;6.53;;
23410;SDS011;11878;51.774;7.220;2023-05-07T12:51:22;7.97;;;5.38;;
23410;SDS011;11878;51.774;7.220;2023-05-07T12:54:30;8.00;;;4.78;;
23410;SDS011;11878;51.774;7.220;2023-05-07T12:57:43;8.88;;;5.45;;
23410;SDS011;11878;51.774;7.220;2023-05-07T13:00:52;8.40;;;5.53;;
23410;SDS011;11878;51.774;7.220;2023-05-07T13:03:55;9.60;;;5.80;;
23410;SDS011;11878;51.774;7.220;2023-05-07T13:06:57;11.10;;;6.82;;
23410;SDS011;11878;51.774;7.220;2023-05-07T13:09:59;9.63;;;6.30;;
23410;SDS011;11878;51.774;7.220;2023-05-07T13:13:03;8.75;;;5.78;;
23410;SDS011;11878;51.774;7.220;2023-05-07T13:16:06;8.27;;;4.97;;
23410;SDS011;11878;51.774;7.220;2023-05-07T13:19:09;6.95;;;4.70;;
23410;SDS011;11878;51.774;7.220;2023-05-07T13:22:12;9.10;;;4.18;;
23410;SDS011;11878;51.774;7.220;2023-05-07T13:25:14;6.97;;;3.88;;
23410;SDS011;11878;51.774;7.220;2023-05-07T13:28:16;5.00;;;2.80;;
23410;SDS011;11878;51.774;7.220;2023-05-07T13:31:18;7.00;;;5.03;;
23410;SDS011;11878;51.774;7.220;2023-05-07T13:34:20;9.02;;;4.65;;
23410;SDS011;11878;51.774;7.220;2023-05-07T13:37:21;7.57;;;4.47;;
23410;SDS011;11878;51.774;7.220;2023-05-07T13:40:23;8.40;;;4.35;;
23410;SDS011;11878;51.774;7.220;2023-05-07T13:43:25;6.38;;;4.30;;
23410;SDS011;11878;51.774;7.220;2023-05-07T13:46:27;8.00;;;4.70;;
23410;SDS011;11878;51.774;7.220;2023-05-07T13:49:32;8.25;;;5.30;;
23410;SDS011;11878;51.774;7.220;2023-05-07T13:52:34;8.15;;;5.32;;
23410;SDS011;11878;51.774;7.220;2023-05-07T13:55:36;7.90;;;5.32;;
23410;SDS011;11878;51.774;7.220;2023-05-07T13:58:37;7.78;;;5.45;;
23410;SDS011;11878;51.774;7.220;2023-05-07T14:01:57;6.97;;;4.85;;
23410;SDS011;11878;51.774;7.220;2023-05-07T14:04:58;7.43;;;4.53;;
23410;SDS011;11878;51.774;7.220;2023-05-07T14:08:00;9.88;;;5.40;;
23410;SDS011;11878;51.774;7.220;2023-05-07T14:11:02;7.85;;;4.75;;
23410;SDS011;11878;51.774;7.220;2023-05-07T14:14:04;7.35;;;5.03;;
23410;SDS011;11878;51.774;7.220;2023-05-07T14:17:06;6.20;;;4.28;;
23410;SDS011;11878;51.774;7.220;2023-05-07T14:20:09;9.73;;;4.75;;
23410;SDS011;11878;51.774;7.220;2023-05-07T14:23:14;6.93;;;5.07;;
23410;SDS011;11878;51.774;7.220;2023-05-07T14:26:18;7.32;;;4.70;;
23410;SDS011;11878;51.774;7.220;2023-05-07T14:29:20;7.78;;;4.95;;
23410;SDS011;11878;51.774;7.220;2023-05-07T14:32:24;9.10;;;4.90;;
23410;SDS011;11878;51.774;7.220;2023-05-07T14:35:26;7.53;;;4.75;;
23410;SDS011;11878;51.774;7.220;2023-05-07T14:38:28;7.05;;;4.57;;
23410;SDS011;11878;51.774;7.220;2023-05-07T14:41:29;9.38;;;5.43;;
23410;SDS011;11878;51.774;7.220;2023-05-07T14:44:33;9.00;;;5.22;;
23410;SDS011;11878;51.774;7.220;2023-05-07T14:47:36;7.88;;;4.93;;
23410;SDS011;11878;51.774;7.220;2023-05-07T14:50:37;7.68;;;5.32;;
23410;SDS011;11878;51.774;7.220;2023-05-07T14:53:41;8.68;;;5.22;;
23410;SDS011;11878;51.774;7.220;2023-05-07T14:56:43;11.32;;;6.03;;
23410;SDS011;11878;51.774;7.220;2023-05-07T14:59:45;7.97;;;5.13;;
23410;SDS011;11878;51.774;7.220;2023-05-07T15:02:48;11.27;;;6.32;;
23410;SDS011;11878;51.774;7.220;2023-05-07T15:05:50;8.45;;;5.65;;
23410;SDS011;11878;51.774;7.220;2023-05-07T15:08:52;9.00;;;5.70;;
23410;SDS011;11878;51.774;7.220;2023-05-07T15:11:54;9.52;;;5.50;;
23410;SDS011;11878;51.774;7.220;2023-05-07T15:14:56;10.30;;;5.82;;
23410;SDS011;11878;51.774;7.220;2023-05-07T15:17:58;8.82;;;5.68;;
23410;SDS011;11878;51.774;7.220;2023-05-07T15:21:02;8.57;;;5.18;;
23410;SDS011;11878;51.774;7.220;2023-05-07T15:24:04;8.70;;;5.82;;
23410;SDS011;11878;51.774;7.220;2023-05-07T15:27:06;9.30;;;5.77;;
23410;SDS011;11878;51.774;7.220;2023-05-07T15:30:08;9.77;;;6.20;;
23410;SDS011;11878;51.774;7.220;2023-05-07T15:33:12;11.80;;;5.50;;
23410;SDS011;11878;51.774;7.220;2023-05-07T15:36:13;12.68;;;6.43;;
23410;SDS011;11878;51.774;7.220;2023-05-07T15:39:15;8.77;;;5.97;;
23410;SDS011;11878;51.774;7.220;2023-05-07T15:42:17;10.63;;;5.93;;
23410;SDS011;11878;51.774;7.220;2023-05-07T15:45:19;9.85;;;6.30;;
23410;SDS011;11878;51.774;7.220;2023-05-07T15:48:21;10.80;;;6.90;;
23410;SDS011;11878;51.774;7.220;2023-05-07T15:51:22;10.23;;;6.15;;
23410;SDS011;11878;51.774;7.220;2023-05-07T15:54:24;9.32;;;6.20;;
23410;SDS011;11878;51.774;7.220;2023-05-07T15:57:26;14.20;;;7.70;;
23410;SDS011;11878;51.774;7.220;2023-05-07T16:00:28;14.43;;;7.32;;
23410;SDS011;11878;51.774;7.220;2023-05-07T16:03:30;10.60;;;6.17;;
23410;SDS011;11878;51.774;7.220;2023-05-07T16:06:32;12.83;;;7.10;;
23410;SDS011;11878;51.774;7.220;2023-05-07T16:09:34;10.77;;;7.03;;
23410;SDS011;11878;51.774;7.220;2023-05-07T16:12:36;11.60;;;6.68;;
23410;SDS011;11878;51.774;7.220;2023-05-07T16:15:38;10.55;;;6.90;;
23410;SDS011;11878;51.774;7.220;2023-05-07T16:18:39;13.87;;;6.70;;
23410;SDS011;11878;51.774;7.220;2023-05-07T16:21:41;11.27;;;6.93;;
23410;SDS011;11878;51.774;7.220;2023-05-07T16:24:43;12.00;;;7.87;;
23410;SDS011;11878;51.774;7.220;2023-05-07T16:27:45;12.27;;;8.00;;
23410;SDS011;11878;51.774;7.220;2023-05-07T16:30:47;9.73;;;7.45;;
23410;SDS011;11878;51.774;7.220;2023-05-07T16:33:49;13.43;;;8.40;;
23410;SDS011;11878;51.774;7.220;2023-05-07T16:36:51;13.00;;;8.23;;
23410;SDS011;11878;51.774;7.220;2023-05-07T16:39:52;13.50;;;8.40;;
23410;SDS011;11878;51.774;7.220;2023-05-07T16:42:54;12.85;;;7.70;;
23410;SDS011;11878;51.774;7.220;2023-05-07T16:45:56;12.73;;;8.03;;
23410;SDS011;11878;51.774;7.220;2023-05-07T16:48:58;11.75;;;7.22;;
23410;SDS011;11878;51.774;7.220;2023-05-07T16:51:59;12.90;;;7.70;;
23410;SDS011;11878;51.774;7.220;2023-05-07T16:55:03;11.30;;;7.73;;
23410;SDS011;11878;51.774;7.220;2023-05-07T16:58:09;13.57;;;7.82;;
23410;SDS011;11878;51.774;7.220;2023-05-07T17:01:11;10.03;;;7.10;;
23410;SDS011;11878;51.774;7.220;2023-05-07T17:04:15;12.17;;;7.70;;
23410;SDS011;11878;51.774;7.220;2023-05-07T17:07:17;9.93;;;7.87;;
23410;SDS011;11878;51.774;7.220;2023-05-07T17:10:18;11.33;;;6.90;;
23410;SDS011;11878;51.774;7.220;2023-05-07T17:13:20;11.20;;;6.53;;
23410;SDS011;11878;51.774;7.220;2023-05-07T17:16:22;9.67;;;7.33;;
23410;SDS011;11878;51.774;7.220;2023-05-07T17:19:24;12.33;;;7.53;;
23410;SDS011;11878;51.774;7.220;2023-05-07T17:22:26;10.43;;;7.17;;
23410;SDS011;11878;51.774;7.220;2023-05-07T17:25:27;11.63;;;6.93;;
23410;SDS011;11878;51.774;7.220;2023-05-07T17:28:32;9.40;;;6.33;;
23410;SDS011;11878;51.774;7.220;2023-05-07T17:31:34;9.30;;;6.57;;
23410;SDS011;11878;51.774;7.220;2023-05-07T17:34:36;10.07;;;6.73;;
23410;SDS011;11878;51.774;7.220;2023-05-07T17:37:38;10.20;;;6.17;;
23410;SDS011;11878;51.774;7.220;2023-05-07T17:40:40;11.37;;;7.07;;
23410;SDS011;11878;51.774;7.220;2023-05-07T17:43:42;16.47;;;7.70;;
23410;SDS011;11878;51.774;7.220;2023-05-07T17:46:43;10.80;;;6.67;;
23410;SDS011;11878;51.774;7.220;2023-05-07T17:49:45;11.83;;;6.93;;
23410;SDS011;11878;51.774;7.220;2023-05-07T17:52:47;11.43;;;7.40;;
23410;SDS011;11878;51.774;7.220;2023-05-07T17:55:48;10.60;;;6.97;;
23410;SDS011;11878;51.774;7.220;2023-05-07T17:58:50;11.40;;;6.80;;
23410;SDS011;11878;51.774;7.220;2023-05-07T18:01:59;13.57;;;7.50;;
23410;SDS011;11878;51.774;7.220;2023-05-07T18:05:01;11.07;;;7.47;;
23410;SDS011;11878;51.774;7.220;2023-05-07T18:08:04;9.67;;;6.47;;
23410;SDS011;11878;51.774;7.220;2023-05-07T18:11:07;10.57;;;7.00;;
23410;SDS011;11878;51.774;7.220;2023-05-07T18:14:08;9.23;;;6.60;;
23410;SDS011;11878;51.774;7.220;2023-05-07T18:17:10;10.67;;;6.80;;
23410;SDS011;11878;51.774;7.220;2023-05-07T18:20:12;10.80;;;7.50;;